Česky Dansk Deutsch English Español Suomi Français Magyar Italiano Nederlands norsk Polski Português svenska Türkçe

 

Het Weer

Reims (Frankrijk)

07:00, 16 april 2012 (GMT)

NWNNE
WE
SWSSE
Home            
Reims Suippes Range Met Chalons-Vatry Charleville Saint-Quentin St-Dizier Troyes Bertrix Bel-Afb Creil Fafb Florennes Paris-Aeroport Charles De Gaulle Cambrai Toul / Rosieres Paris / Le Bourget Melun St-Hubert Charleroi / Gosselies Paris Met Center Paris-Orly Beauvais Chievres Villacoublay Metz / Frescaty

Om een weerknop op uw website of weblog te plaatsen, copieer onderstaande code en plak die in uw pagina. In het eerste vakje staat HTML-code, in het tweede vakje UBB-code.


Add to Google

Details

Wind speed:3 bf, 9 kn, 4.6 m/s, 10.4 miles/h, 16.7 km/h
Wind direction:NNW, 340° - ENE, 070°
Visibility:Greater than 10000 m, 10 km, 32800 ft, 6.2 miles
Temperature:4°C, 39°F
Gefühlte Temperatur:-0°C, 32°F
Atmospheric pressure:1022 hPa, 766.6 mmHg, 30.18 inHg, 1.009 atm
METAR:LFSR 160700Z AUTO 01009KT 340V070 9999 NSC 04/00 Q1022

Snelkoppelingen

Actuele weersinformatie van de hele wereld. Voeg locaties toe met het plus (+) symbool. Deze snelkoppelingen kunnen worden toegevoegd aan Google.

Lid van de Technetium groep

website free tracking
StatCounter NetStat W3C Validator

16-05-2022 10:39:58
astro.technetium.be money.technetium.be phote.technetium.be tafeltennistafel.technetium.be www.ligfiets.net